sensor_id;sensor_type;location;lat;lon;timestamp;P1;durP1;ratioP1;P2;durP2;ratioP2
11384;SDS011;5747;56.748;13.882;2023-08-07T00:00:37;3.00;;;0.70;;
11384;SDS011;5747;56.748;13.882;2023-08-07T00:03:04;0.57;;;0.50;;
11384;SDS011;5747;56.748;13.882;2023-08-07T00:05:32;0.80;;;0.80;;
11384;SDS011;5747;56.748;13.882;2023-08-07T00:08:00;1.70;;;0.60;;
11384;SDS011;5747;56.748;13.882;2023-08-07T00:10:30;0.50;;;0.50;;
11384;SDS011;5747;56.748;13.882;2023-08-07T00:12:58;0.70;;;0.70;;
11384;SDS011;5747;56.748;13.882;2023-08-07T00:15:26;0.80;;;0.80;;
11384;SDS011;5747;56.748;13.882;2023-08-07T00:17:54;1.10;;;0.70;;
11384;SDS011;5747;56.748;13.882;2023-08-07T00:20:23;0.60;;;0.60;;
11384;SDS011;5747;56.748;13.882;2023-08-07T00:22:51;0.80;;;0.80;;
11384;SDS011;5747;56.748;13.882;2023-08-07T00:25:19;0.70;;;0.70;;
11384;SDS011;5747;56.748;13.882;2023-08-07T00:27:48;1.47;;;0.70;;
11384;SDS011;5747;56.748;13.882;2023-08-07T00:30:17;1.03;;;0.70;;
11384;SDS011;5747;56.748;13.882;2023-08-07T00:32:45;1.10;;;0.70;;
11384;SDS011;5747;56.748;13.882;2023-08-07T00:35:13;0.60;;;0.60;;
11384;SDS011;5747;56.748;13.882;2023-08-07T00:37:42;1.83;;;0.70;;
11384;SDS011;5747;56.748;13.882;2023-08-07T00:40:10;1.63;;;0.80;;
11384;SDS011;5747;56.748;13.882;2023-08-07T00:42:38;3.37;;;0.80;;
11384;SDS011;5747;56.748;13.882;2023-08-07T00:45:09;1.20;;;1.03;;
11384;SDS011;5747;56.748;13.882;2023-08-07T00:47:37;1.70;;;1.10;;
11384;SDS011;5747;56.748;13.882;2023-08-07T00:50:07;1.00;;;1.00;;
11384;SDS011;5747;56.748;13.882;2023-08-07T00:52:35;0.77;;;0.60;;
11384;SDS011;5747;56.748;13.882;2023-08-07T00:55:04;0.60;;;0.60;;
11384;SDS011;5747;56.748;13.882;2023-08-07T00:57:33;0.90;;;0.63;;
11384;SDS011;5747;56.748;13.882;2023-08-07T01:00:01;1.90;;;0.80;;
11384;SDS011;5747;56.748;13.882;2023-08-07T01:02:31;0.60;;;0.60;;
11384;SDS011;5747;56.748;13.882;2023-08-07T01:05:00;0.73;;;0.73;;
11384;SDS011;5747;56.748;13.882;2023-08-07T01:07:28;1.10;;;0.83;;
11384;SDS011;5747;56.748;13.882;2023-08-07T01:09:57;1.00;;;0.90;;
11384;SDS011;5747;56.748;13.882;2023-08-07T01:12:30;0.87;;;0.70;;
11384;SDS011;5747;56.748;13.882;2023-08-07T01:15:03;0.70;;;0.70;;
11384;SDS011;5747;56.748;13.882;2023-08-07T01:17:39;0.97;;;0.90;;
11384;SDS011;5747;56.748;13.882;2023-08-07T01:20:10;1.57;;;0.90;;
11384;SDS011;5747;56.748;13.882;2023-08-07T01:22:40;1.63;;;1.20;;
11384;SDS011;5747;56.748;13.882;2023-08-07T01:25:08;1.57;;;1.00;;
11384;SDS011;5747;56.748;13.882;2023-08-07T01:27:40;1.50;;;0.97;;
11384;SDS011;5747;56.748;13.882;2023-08-07T01:30:14;1.13;;;0.80;;
11384;SDS011;5747;56.748;13.882;2023-08-07T01:32:54;3.20;;;1.00;;
11384;SDS011;5747;56.748;13.882;2023-08-07T01:35:27;1.17;;;1.07;;
11384;SDS011;5747;56.748;13.882;2023-08-07T01:37:59;1.50;;;1.00;;
11384;SDS011;5747;56.748;13.882;2023-08-07T01:40:28;1.77;;;1.00;;
11384;SDS011;5747;56.748;13.882;2023-08-07T01:42:58;1.20;;;1.10;;
11384;SDS011;5747;56.748;13.882;2023-08-07T01:45:27;2.97;;;1.10;;
11384;SDS011;5747;56.748;13.882;2023-08-07T01:47:56;1.30;;;1.20;;
11384;SDS011;5747;56.748;13.882;2023-08-07T01:50:24;1.00;;;1.00;;
11384;SDS011;5747;56.748;13.882;2023-08-07T01:52:53;1.00;;;1.00;;
11384;SDS011;5747;56.748;13.882;2023-08-07T01:55:23;1.00;;;1.00;;
11384;SDS011;5747;56.748;13.882;2023-08-07T01:57:52;2.10;;;1.10;;
11384;SDS011;5747;56.748;13.882;2023-08-07T02:00:21;1.47;;;1.20;;
11384;SDS011;5747;56.748;13.882;2023-08-07T02:02:49;1.30;;;1.20;;
11384;SDS011;5747;56.748;13.882;2023-08-07T02:05:17;1.50;;;1.40;;
11384;SDS011;5747;56.748;13.882;2023-08-07T02:07:45;2.33;;;1.40;;
11384;SDS011;5747;56.748;13.882;2023-08-07T02:10:14;1.77;;;1.30;;
11384;SDS011;5747;56.748;13.882;2023-08-07T02:12:43;1.30;;;1.20;;
11384;SDS011;5747;56.748;13.882;2023-08-07T02:15:12;1.47;;;1.20;;
11384;SDS011;5747;56.748;13.882;2023-08-07T02:17:40;3.63;;;1.20;;
11384;SDS011;5747;56.748;13.882;2023-08-07T02:20:09;2.53;;;1.30;;
11384;SDS011;5747;56.748;13.882;2023-08-07T02:22:38;3.20;;;1.20;;
11384;SDS011;5747;56.748;13.882;2023-08-07T02:25:06;3.13;;;1.60;;
11384;SDS011;5747;56.748;13.882;2023-08-07T02:27:37;3.13;;;1.60;;
11384;SDS011;5747;56.748;13.882;2023-08-07T02:30:07;1.33;;;1.27;;
11384;SDS011;5747;56.748;13.882;2023-08-07T02:32:35;1.90;;;1.70;;
11384;SDS011;5747;56.748;13.882;2023-08-07T02:35:04;1.60;;;1.50;;
11384;SDS011;5747;56.748;13.882;2023-08-07T02:37:32;1.57;;;1.47;;
11384;SDS011;5747;56.748;13.882;2023-08-07T02:40:00;2.53;;;1.63;;
11384;SDS011;5747;56.748;13.882;2023-08-07T02:42:28;3.37;;;1.80;;
11384;SDS011;5747;56.748;13.882;2023-08-07T02:44:57;1.80;;;1.70;;
11384;SDS011;5747;56.748;13.882;2023-08-07T02:47:26;3.57;;;1.77;;
11384;SDS011;5747;56.748;13.882;2023-08-07T02:49:54;2.77;;;1.93;;
11384;SDS011;5747;56.748;13.882;2023-08-07T02:52:22;3.67;;;1.97;;
11384;SDS011;5747;56.748;13.882;2023-08-07T02:54:51;2.83;;;1.90;;
11384;SDS011;5747;56.748;13.882;2023-08-07T02:57:19;2.97;;;2.07;;
11384;SDS011;5747;56.748;13.882;2023-08-07T02:59:47;2.20;;;2.00;;
11384;SDS011;5747;56.748;13.882;2023-08-07T03:02:15;2.30;;;2.10;;
11384;SDS011;5747;56.748;13.882;2023-08-07T03:04:44;3.07;;;2.00;;
11384;SDS011;5747;56.748;13.882;2023-08-07T03:07:13;2.20;;;2.00;;
11384;SDS011;5747;56.748;13.882;2023-08-07T03:09:41;3.33;;;2.00;;
11384;SDS011;5747;56.748;13.882;2023-08-07T03:12:13;2.80;;;2.40;;
11384;SDS011;5747;56.748;13.882;2023-08-07T03:14:41;6.67;;;2.50;;
11384;SDS011;5747;56.748;13.882;2023-08-07T03:17:10;2.90;;;2.57;;
11384;SDS011;5747;56.748;13.882;2023-08-07T03:19:39;3.93;;;2.50;;
11384;SDS011;5747;56.748;13.882;2023-08-07T03:22:12;2.47;;;2.27;;
11384;SDS011;5747;56.748;13.882;2023-08-07T03:24:40;8.27;;;2.43;;
11384;SDS011;5747;56.748;13.882;2023-08-07T03:27:13;6.70;;;2.63;;
11384;SDS011;5747;56.748;13.882;2023-08-07T03:29:42;2.77;;;2.47;;
11384;SDS011;5747;56.748;13.882;2023-08-07T03:32:12;3.63;;;3.00;;
11384;SDS011;5747;56.748;13.882;2023-08-07T03:34:41;5.87;;;3.33;;
11384;SDS011;5747;56.748;13.882;2023-08-07T03:37:09;4.80;;;2.83;;
11384;SDS011;5747;56.748;13.882;2023-08-07T03:39:39;4.80;;;2.80;;
11384;SDS011;5747;56.748;13.882;2023-08-07T03:42:10;5.87;;;3.10;;
11384;SDS011;5747;56.748;13.882;2023-08-07T03:44:38;4.53;;;3.23;;
11384;SDS011;5747;56.748;13.882;2023-08-07T03:47:06;4.33;;;3.27;;
11384;SDS011;5747;56.748;13.882;2023-08-07T03:49:34;4.37;;;3.40;;
11384;SDS011;5747;56.748;13.882;2023-08-07T03:52:03;6.07;;;2.87;;
11384;SDS011;5747;56.748;13.882;2023-08-07T03:54:32;6.90;;;2.83;;
11384;SDS011;5747;56.748;13.882;2023-08-07T03:57:01;5.13;;;3.50;;
11384;SDS011;5747;56.748;13.882;2023-08-07T03:59:30;7.17;;;3.43;;
11384;SDS011;5747;56.748;13.882;2023-08-07T04:01:58;6.57;;;3.30;;
11384;SDS011;5747;56.748;13.882;2023-08-07T04:04:26;7.37;;;3.20;;
11384;SDS011;5747;56.748;13.882;2023-08-07T04:06:54;7.80;;;3.83;;
11384;SDS011;5747;56.748;13.882;2023-08-07T04:09:23;3.97;;;2.93;;
11384;SDS011;5747;56.748;13.882;2023-08-07T04:11:51;6.90;;;3.23;;
11384;SDS011;5747;56.748;13.882;2023-08-07T04:14:20;8.70;;;3.80;;
11384;SDS011;5747;56.748;13.882;2023-08-07T04:16:49;8.37;;;3.27;;
11384;SDS011;5747;56.748;13.882;2023-08-07T04:19:17;5.30;;;3.43;;
11384;SDS011;5747;56.748;13.882;2023-08-07T04:21:45;4.53;;;3.40;;
11384;SDS011;5747;56.748;13.882;2023-08-07T04:24:13;4.53;;;3.50;;
11384;SDS011;5747;56.748;13.882;2023-08-07T04:26:41;5.60;;;3.60;;
11384;SDS011;5747;56.748;13.882;2023-08-07T04:29:09;4.07;;;3.20;;
11384;SDS011;5747;56.748;13.882;2023-08-07T04:31:39;6.53;;;3.40;;
11384;SDS011;5747;56.748;13.882;2023-08-07T04:34:07;4.47;;;3.73;;
11384;SDS011;5747;56.748;13.882;2023-08-07T04:36:35;5.93;;;3.60;;
11384;SDS011;5747;56.748;13.882;2023-08-07T04:39:04;6.07;;;3.97;;
11384;SDS011;5747;56.748;13.882;2023-08-07T04:41:32;7.73;;;3.97;;
11384;SDS011;5747;56.748;13.882;2023-08-07T04:44:00;4.57;;;4.13;;
11384;SDS011;5747;56.748;13.882;2023-08-07T04:46:28;6.83;;;4.30;;
11384;SDS011;5747;56.748;13.882;2023-08-07T04:48:58;5.17;;;4.33;;
11384;SDS011;5747;56.748;13.882;2023-08-07T04:51:27;8.03;;;5.00;;
11384;SDS011;5747;56.748;13.882;2023-08-07T04:53:57;7.30;;;4.47;;
11384;SDS011;5747;56.748;13.882;2023-08-07T04:56:25;8.17;;;4.70;;
11384;SDS011;5747;56.748;13.882;2023-08-07T04:58:54;9.23;;;4.83;;
11384;SDS011;5747;56.748;13.882;2023-08-07T05:01:22;9.47;;;5.33;;
11384;SDS011;5747;56.748;13.882;2023-08-07T05:03:50;8.23;;;5.17;;
11384;SDS011;5747;56.748;13.882;2023-08-07T05:06:20;7.50;;;5.40;;
11384;SDS011;5747;56.748;13.882;2023-08-07T05:08:48;8.93;;;5.53;;
11384;SDS011;5747;56.748;13.882;2023-08-07T05:11:16;10.07;;;5.40;;
11384;SDS011;5747;56.748;13.882;2023-08-07T05:13:46;13.70;;;5.70;;
11384;SDS011;5747;56.748;13.882;2023-08-07T05:16:14;8.30;;;5.30;;
11384;SDS011;5747;56.748;13.882;2023-08-07T05:18:45;10.80;;;6.00;;
11384;SDS011;5747;56.748;13.882;2023-08-07T05:21:16;12.50;;;6.10;;
11384;SDS011;5747;56.748;13.882;2023-08-07T05:23:46;14.67;;;6.70;;
11384;SDS011;5747;56.748;13.882;2023-08-07T05:26:14;10.10;;;6.87;;
11384;SDS011;5747;56.748;13.882;2023-08-07T05:28:44;9.53;;;6.83;;
11384;SDS011;5747;56.748;13.882;2023-08-07T05:31:12;14.70;;;8.27;;
11384;SDS011;5747;56.748;13.882;2023-08-07T05:33:40;14.57;;;7.77;;
11384;SDS011;5747;56.748;13.882;2023-08-07T05:36:08;16.07;;;8.20;;
11384;SDS011;5747;56.748;13.882;2023-08-07T05:38:36;16.20;;;9.10;;
11384;SDS011;5747;56.748;13.882;2023-08-07T05:41:06;17.43;;;9.33;;
11384;SDS011;5747;56.748;13.882;2023-08-07T05:43:36;14.03;;;9.60;;
11384;SDS011;5747;56.748;13.882;2023-08-07T05:46:04;13.43;;;9.90;;
11384;SDS011;5747;56.748;13.882;2023-08-07T05:48:32;13.67;;;9.77;;
11384;SDS011;5747;56.748;13.882;2023-08-07T05:51:00;16.13;;;10.50;;
11384;SDS011;5747;56.748;13.882;2023-08-07T05:53:28;12.23;;;10.07;;
11384;SDS011;5747;56.748;13.882;2023-08-07T05:55:56;14.60;;;10.37;;
11384;SDS011;5747;56.748;13.882;2023-08-07T05:58:26;17.73;;;10.73;;
11384;SDS011;5747;56.748;13.882;2023-08-07T06:00:54;18.03;;;10.23;;
11384;SDS011;5747;56.748;13.882;2023-08-07T06:03:22;16.73;;;10.33;;
11384;SDS011;5747;56.748;13.882;2023-08-07T06:05:50;18.57;;;10.93;;
11384;SDS011;5747;56.748;13.882;2023-08-07T06:08:18;15.90;;;10.60;;
11384;SDS011;5747;56.748;13.882;2023-08-07T06:10:47;13.63;;;10.57;;
11384;SDS011;5747;56.748;13.882;2023-08-07T06:13:15;15.90;;;10.90;;
11384;SDS011;5747;56.748;13.882;2023-08-07T06:15:57;14.10;;;10.13;;
11384;SDS011;5747;56.748;13.882;2023-08-07T06:18:25;12.63;;;10.77;;
11384;SDS011;5747;56.748;13.882;2023-08-07T06:20:53;18.87;;;10.53;;
11384;SDS011;5747;56.748;13.882;2023-08-07T06:23:21;15.87;;;10.63;;
11384;SDS011;5747;56.748;13.882;2023-08-07T06:25:50;17.07;;;10.83;;
11384;SDS011;5747;56.748;13.882;2023-08-07T06:28:24;15.17;;;10.67;;
11384;SDS011;5747;56.748;13.882;2023-08-07T06:30:52;16.87;;;11.13;;
11384;SDS011;5747;56.748;13.882;2023-08-07T06:33:28;15.70;;;11.47;;
11384;SDS011;5747;56.748;13.882;2023-08-07T06:35:56;14.53;;;11.33;;
11384;SDS011;5747;56.748;13.882;2023-08-07T06:38:25;15.53;;;11.33;;
11384;SDS011;5747;56.748;13.882;2023-08-07T06:40:53;17.77;;;11.97;;
11384;SDS011;5747;56.748;13.882;2023-08-07T06:43:21;13.70;;;11.00;;
11384;SDS011;5747;56.748;13.882;2023-08-07T06:45:49;14.83;;;11.70;;
11384;SDS011;5747;56.748;13.882;2023-08-07T06:48:18;14.47;;;11.40;;
11384;SDS011;5747;56.748;13.882;2023-08-07T06:50:47;15.40;;;11.27;;
11384;SDS011;5747;56.748;13.882;2023-08-07T06:53:16;14.30;;;10.57;;
11384;SDS011;5747;56.748;13.882;2023-08-07T06:55:44;16.17;;;11.67;;
11384;SDS011;5747;56.748;13.882;2023-08-07T06:58:13;13.67;;;10.70;;
11384;SDS011;5747;56.748;13.882;2023-08-07T07:00:41;12.77;;;10.30;;
11384;SDS011;5747;56.748;13.882;2023-08-07T07:03:09;12.43;;;10.03;;
11384;SDS011;5747;56.748;13.882;2023-08-07T07:05:37;12.20;;;10.20;;
11384;SDS011;5747;56.748;13.882;2023-08-07T07:08:07;13.63;;;9.47;;
11384;SDS011;5747;56.748;13.882;2023-08-07T07:10:35;8.77;;;7.57;;
11384;SDS011;5747;56.748;13.882;2023-08-07T07:13:03;7.73;;;6.93;;
11384;SDS011;5747;56.748;13.882;2023-08-07T07:15:31;6.30;;;5.70;;
11384;SDS011;5747;56.748;13.882;2023-08-07T07:17:59;6.77;;;5.57;;
11384;SDS011;5747;56.748;13.882;2023-08-07T07:20:27;6.23;;;5.63;;
11384;SDS011;5747;56.748;13.882;2023-08-07T07:22:56;8.53;;;5.70;;
11384;SDS011;5747;56.748;13.882;2023-08-07T07:25:25;6.33;;;5.50;;
11384;SDS011;5747;56.748;13.882;2023-08-07T07:27:53;6.77;;;5.00;;
11384;SDS011;5747;56.748;13.882;2023-08-07T07:30:21;5.70;;;4.70;;
11384;SDS011;5747;56.748;13.882;2023-08-07T07:32:50;4.87;;;4.37;;
11384;SDS011;5747;56.748;13.882;2023-08-07T07:35:18;4.07;;;3.67;;
11384;SDS011;5747;56.748;13.882;2023-08-07T07:37:46;4.47;;;4.07;;
11384;SDS011;5747;56.748;13.882;2023-08-07T07:40:14;3.70;;;3.30;;
11384;SDS011;5747;56.748;13.882;2023-08-07T07:42:44;4.37;;;2.60;;
11384;SDS011;5747;56.748;13.882;2023-08-07T07:45:12;2.90;;;2.57;;
11384;SDS011;5747;56.748;13.882;2023-08-07T07:47:40;5.03;;;2.70;;
11384;SDS011;5747;56.748;13.882;2023-08-07T07:50:09;3.27;;;2.50;;
11384;SDS011;5747;56.748;13.882;2023-08-07T07:52:39;2.60;;;2.30;;
11384;SDS011;5747;56.748;13.882;2023-08-07T07:55:07;2.60;;;2.40;;
11384;SDS011;5747;56.748;13.882;2023-08-07T07:57:36;2.60;;;2.40;;
11384;SDS011;5747;56.748;13.882;2023-08-07T08:00:06;2.57;;;2.30;;
11384;SDS011;5747;56.748;13.882;2023-08-07T08:02:39;2.53;;;2.33;;
11384;SDS011;5747;56.748;13.882;2023-08-07T08:05:09;3.57;;;2.20;;
11384;SDS011;5747;56.748;13.882;2023-08-07T08:07:38;3.63;;;2.40;;
11384;SDS011;5747;56.748;13.882;2023-08-07T08:10:07;2.60;;;2.40;;
11384;SDS011;5747;56.748;13.882;2023-08-07T08:12:36;2.63;;;2.20;;
11384;SDS011;5747;56.748;13.882;2023-08-07T08:15:06;2.07;;;1.97;;
11384;SDS011;5747;56.748;13.882;2023-08-07T08:17:35;2.67;;;1.70;;
11384;SDS011;5747;56.748;13.882;2023-08-07T08:20:03;3.07;;;2.07;;
11384;SDS011;5747;56.748;13.882;2023-08-07T08:22:33;5.97;;;2.17;;
11384;SDS011;5747;56.748;13.882;2023-08-07T08:25:01;2.10;;;1.90;;
11384;SDS011;5747;56.748;13.882;2023-08-07T08:27:31;4.57;;;2.00;;
11384;SDS011;5747;56.748;13.882;2023-08-07T08:29:59;2.40;;;1.70;;
11384;SDS011;5747;56.748;13.882;2023-08-07T08:32:28;2.00;;;1.90;;
11384;SDS011;5747;56.748;13.882;2023-08-07T08:34:56;3.17;;;1.70;;
11384;SDS011;5747;56.748;13.882;2023-08-07T08:37:25;3.67;;;1.90;;
11384;SDS011;5747;56.748;13.882;2023-08-07T08:39:53;3.30;;;1.80;;
11384;SDS011;5747;56.748;13.882;2023-08-07T08:42:21;1.77;;;1.63;;
11384;SDS011;5747;56.748;13.882;2023-08-07T08:44:51;1.53;;;1.43;;
11384;SDS011;5747;56.748;13.882;2023-08-07T08:47:21;2.00;;;1.50;;
11384;SDS011;5747;56.748;13.882;2023-08-07T08:49:53;1.57;;;1.33;;
11384;SDS011;5747;56.748;13.882;2023-08-07T08:52:27;2.83;;;1.60;;
11384;SDS011;5747;56.748;13.882;2023-08-07T08:54:56;1.60;;;1.50;;
11384;SDS011;5747;56.748;13.882;2023-08-07T08:57:25;1.53;;;1.43;;
11384;SDS011;5747;56.748;13.882;2023-08-07T08:59:53;2.03;;;1.37;;
11384;SDS011;5747;56.748;13.882;2023-08-07T09:02:23;2.03;;;1.47;;
11384;SDS011;5747;56.748;13.882;2023-08-07T09:04:54;1.70;;;1.40;;
11384;SDS011;5747;56.748;13.882;2023-08-07T09:07:22;1.90;;;1.60;;
11384;SDS011;5747;56.748;13.882;2023-08-07T09:09:51;2.70;;;1.27;;
11384;SDS011;5747;56.748;13.882;2023-08-07T09:12:20;1.23;;;1.10;;
11384;SDS011;5747;56.748;13.882;2023-08-07T09:14:54;1.27;;;1.17;;
11384;SDS011;5747;56.748;13.882;2023-08-07T09:17:27;1.50;;;1.20;;
11384;SDS011;5747;56.748;13.882;2023-08-07T09:19:58;1.37;;;1.20;;
11384;SDS011;5747;56.748;13.882;2023-08-07T09:22:27;1.50;;;1.40;;
11384;SDS011;5747;56.748;13.882;2023-08-07T09:24:55;1.20;;;1.10;;
11384;SDS011;5747;56.748;13.882;2023-08-07T09:27:26;1.20;;;1.10;;
11384;SDS011;5747;56.748;13.882;2023-08-07T09:29:54;2.17;;;1.00;;
11384;SDS011;5747;56.748;13.882;2023-08-07T09:32:23;1.53;;;1.00;;
11384;SDS011;5747;56.748;13.882;2023-08-07T09:34:51;0.80;;;0.80;;
11384;SDS011;5747;56.748;13.882;2023-08-07T09:37:21;0.97;;;0.83;;
11384;SDS011;5747;56.748;13.882;2023-08-07T09:39:50;1.63;;;0.80;;
11384;SDS011;5747;56.748;13.882;2023-08-07T09:42:19;0.80;;;0.80;;
11384;SDS011;5747;56.748;13.882;2023-08-07T09:44:47;1.23;;;0.90;;
11384;SDS011;5747;56.748;13.882;2023-08-07T09:47:15;1.03;;;0.90;;
11384;SDS011;5747;56.748;13.882;2023-08-07T09:49:45;1.80;;;0.90;;
11384;SDS011;5747;56.748;13.882;2023-08-07T09:52:14;0.80;;;0.80;;
11384;SDS011;5747;56.748;13.882;2023-08-07T09:54:43;0.70;;;0.70;;
11384;SDS011;5747;56.748;13.882;2023-08-07T09:57:12;1.10;;;0.90;;
11384;SDS011;5747;56.748;13.882;2023-08-07T09:59:41;2.93;;;0.83;;
11384;SDS011;5747;56.748;13.882;2023-08-07T10:02:09;0.77;;;0.70;;
11384;SDS011;5747;56.748;13.882;2023-08-07T10:04:38;1.00;;;0.80;;
11384;SDS011;5747;56.748;13.882;2023-08-07T10:07:08;1.20;;;0.90;;
11384;SDS011;5747;56.748;13.882;2023-08-07T10:09:39;0.90;;;0.90;;
11384;SDS011;5747;56.748;13.882;2023-08-07T10:12:09;0.70;;;0.70;;
11384;SDS011;5747;56.748;13.882;2023-08-07T10:14:38;1.07;;;0.93;;
11384;SDS011;5747;56.748;13.882;2023-08-07T10:17:08;1.50;;;0.90;;
11384;SDS011;5747;56.748;13.882;2023-08-07T10:19:38;1.50;;;0.90;;
11384;SDS011;5747;56.748;13.882;2023-08-07T10:22:06;0.73;;;0.63;;
11384;SDS011;5747;56.748;13.882;2023-08-07T10:24:35;3.07;;;0.70;;
11384;SDS011;5747;56.748;13.882;2023-08-07T10:27:05;0.87;;;0.73;;
11384;SDS011;5747;56.748;13.882;2023-08-07T10:29:36;2.00;;;0.70;;
11384;SDS011;5747;56.748;13.882;2023-08-07T10:32:06;0.80;;;0.80;;
11384;SDS011;5747;56.748;13.882;2023-08-07T10:34:36;2.00;;;0.70;;
11384;SDS011;5747;56.748;13.882;2023-08-07T10:37:06;0.60;;;0.60;;
11384;SDS011;5747;56.748;13.882;2023-08-07T10:39:34;1.10;;;0.70;;
11384;SDS011;5747;56.748;13.882;2023-08-07T10:42:02;2.40;;;0.70;;
11384;SDS011;5747;56.748;13.882;2023-08-07T10:44:31;2.87;;;0.87;;
11384;SDS011;5747;56.748;13.882;2023-08-07T10:47:02;1.30;;;1.00;;
11384;SDS011;5747;56.748;13.882;2023-08-07T10:49:30;0.70;;;0.70;;
11384;SDS011;5747;56.748;13.882;2023-08-07T10:52:03;1.63;;;0.90;;
11384;SDS011;5747;56.748;13.882;2023-08-07T10:54:38;1.13;;;0.60;;
11384;SDS011;5747;56.748;13.882;2023-08-07T10:57:10;2.40;;;0.80;;
11384;SDS011;5747;56.748;13.882;2023-08-07T10:59:43;1.50;;;0.60;;
11384;SDS011;5747;56.748;13.882;2023-08-07T11:02:21;0.93;;;0.57;;
11384;SDS011;5747;56.748;13.882;2023-08-07T11:04:51;0.60;;;0.60;;
11384;SDS011;5747;56.748;13.882;2023-08-07T11:07:22;1.50;;;0.60;;
11384;SDS011;5747;56.748;13.882;2023-08-07T11:09:51;0.60;;;0.60;;
11384;SDS011;5747;56.748;13.882;2023-08-07T11:12:19;0.60;;;0.50;;
11384;SDS011;5747;56.748;13.882;2023-08-07T11:14:48;0.73;;;0.50;;
11384;SDS011;5747;56.748;13.882;2023-08-07T11:17:17;0.80;;;0.60;;
11384;SDS011;5747;56.748;13.882;2023-08-07T11:19:46;0.57;;;0.50;;
11384;SDS011;5747;56.748;13.882;2023-08-07T11:22:15;0.60;;;0.60;;
11384;SDS011;5747;56.748;13.882;2023-08-07T11:24:43;1.80;;;0.67;;
11384;SDS011;5747;56.748;13.882;2023-08-07T11:27:13;0.40;;;0.40;;
11384;SDS011;5747;56.748;13.882;2023-08-07T11:29:41;0.70;;;0.50;;
11384;SDS011;5747;56.748;13.882;2023-08-07T11:32:12;0.83;;;0.80;;
11384;SDS011;5747;56.748;13.882;2023-08-07T11:34:47;0.80;;;0.70;;
11384;SDS011;5747;56.748;13.882;2023-08-07T11:37:16;0.60;;;0.60;;
11384;SDS011;5747;56.748;13.882;2023-08-07T11:39:45;0.60;;;0.60;;
11384;SDS011;5747;56.748;13.882;2023-08-07T11:42:13;1.40;;;0.50;;
11384;SDS011;5747;56.748;13.882;2023-08-07T11:44:42;0.53;;;0.53;;
11384;SDS011;5747;56.748;13.882;2023-08-07T11:47:10;0.50;;;0.40;;
11384;SDS011;5747;56.748;13.882;2023-08-07T11:49:38;0.80;;;0.60;;
11384;SDS011;5747;56.748;13.882;2023-08-07T11:52:08;1.17;;;0.50;;
11384;SDS011;5747;56.748;13.882;2023-08-07T11:54:36;0.63;;;0.60;;
11384;SDS011;5747;56.748;13.882;2023-08-07T11:57:14;0.60;;;0.60;;
11384;SDS011;5747;56.748;13.882;2023-08-07T11:59:43;0.60;;;0.60;;
11384;SDS011;5747;56.748;13.882;2023-08-07T12:02:15;0.50;;;0.50;;
11384;SDS011;5747;56.748;13.882;2023-08-07T12:04:43;0.60;;;0.60;;
11384;SDS011;5747;56.748;13.882;2023-08-07T12:07:16;0.83;;;0.70;;
11384;SDS011;5747;56.748;13.882;2023-08-07T12:09:49;0.70;;;0.63;;
11384;SDS011;5747;56.748;13.882;2023-08-07T12:12:19;0.67;;;0.63;;
11384;SDS011;5747;56.748;13.882;2023-08-07T12:14:51;1.80;;;0.53;;
11384;SDS011;5747;56.748;13.882;2023-08-07T12:17:21;2.07;;;0.43;;
11384;SDS011;5747;56.748;13.882;2023-08-07T12:19:49;0.60;;;0.60;;
11384;SDS011;5747;56.748;13.882;2023-08-07T12:22:20;0.73;;;0.60;;
11384;SDS011;5747;56.748;13.882;2023-08-07T12:24:48;0.60;;;0.60;;
11384;SDS011;5747;56.748;13.882;2023-08-07T12:27:17;0.57;;;0.57;;
11384;SDS011;5747;56.748;13.882;2023-08-07T12:29:46;0.83;;;0.60;;
11384;SDS011;5747;56.748;13.882;2023-08-07T12:32:14;1.73;;;0.60;;
11384;SDS011;5747;56.748;13.882;2023-08-07T12:34:42;0.50;;;0.50;;
11384;SDS011;5747;56.748;13.882;2023-08-07T12:37:13;0.40;;;0.40;;
11384;SDS011;5747;56.748;13.882;2023-08-07T12:39:42;0.70;;;0.60;;
11384;SDS011;5747;56.748;13.882;2023-08-07T12:42:13;0.73;;;0.60;;
11384;SDS011;5747;56.748;13.882;2023-08-07T12:44:45;1.17;;;0.63;;
11384;SDS011;5747;56.748;13.882;2023-08-07T12:47:13;0.73;;;0.60;;
11384;SDS011;5747;56.748;13.882;2023-08-07T12:49:41;0.57;;;0.50;;
11384;SDS011;5747;56.748;13.882;2023-08-07T12:52:11;1.43;;;0.70;;
11384;SDS011;5747;56.748;13.882;2023-08-07T12:54:39;1.20;;;0.87;;
11384;SDS011;5747;56.748;13.882;2023-08-07T12:57:09;2.00;;;0.70;;
11384;SDS011;5747;56.748;13.882;2023-08-07T12:59:37;2.03;;;0.63;;
11384;SDS011;5747;56.748;13.882;2023-08-07T13:02:05;3.90;;;1.30;;
11384;SDS011;5747;56.748;13.882;2023-08-07T13:04:33;0.77;;;0.60;;
11384;SDS011;5747;56.748;13.882;2023-08-07T13:07:01;0.87;;;0.60;;
11384;SDS011;5747;56.748;13.882;2023-08-07T13:09:30;0.80;;;0.80;;
11384;SDS011;5747;56.748;13.882;2023-08-07T13:11:58;0.70;;;0.60;;
11384;SDS011;5747;56.748;13.882;2023-08-07T13:14:27;0.60;;;0.60;;
11384;SDS011;5747;56.748;13.882;2023-08-07T13:16:56;1.07;;;0.70;;
11384;SDS011;5747;56.748;13.882;2023-08-07T13:19:24;0.57;;;0.50;;
11384;SDS011;5747;56.748;13.882;2023-08-07T13:21:52;0.70;;;0.70;;
11384;SDS011;5747;56.748;13.882;2023-08-07T13:24:21;0.93;;;0.70;;
11384;SDS011;5747;56.748;13.882;2023-08-07T13:26:49;0.83;;;0.60;;
11384;SDS011;5747;56.748;13.882;2023-08-07T13:29:17;0.60;;;0.60;;
11384;SDS011;5747;56.748;13.882;2023-08-07T13:31:47;0.50;;;0.50;;
11384;SDS011;5747;56.748;13.882;2023-08-07T13:34:15;0.77;;;0.77;;
11384;SDS011;5747;56.748;13.882;2023-08-07T13:36:44;1.20;;;0.60;;
11384;SDS011;5747;56.748;13.882;2023-08-07T13:39:12;1.37;;;0.67;;
11384;SDS011;5747;56.748;13.882;2023-08-07T13:41:40;1.70;;;0.40;;
11384;SDS011;5747;56.748;13.882;2023-08-07T13:44:08;0.50;;;0.50;;
11384;SDS011;5747;56.748;13.882;2023-08-07T13:46:39;1.23;;;0.60;;
11384;SDS011;5747;56.748;13.882;2023-08-07T13:49:09;1.27;;;0.60;;
11384;SDS011;5747;56.748;13.882;2023-08-07T13:51:37;1.33;;;0.60;;
11384;SDS011;5747;56.748;13.882;2023-08-07T13:54:05;0.70;;;0.70;;
11384;SDS011;5747;56.748;13.882;2023-08-07T13:56:34;1.53;;;0.63;;
11384;SDS011;5747;56.748;13.882;2023-08-07T13:59:02;2.67;;;0.70;;
11384;SDS011;5747;56.748;13.882;2023-08-07T14:01:30;7.63;;;0.97;;
11384;SDS011;5747;56.748;13.882;2023-08-07T14:03:59;2.67;;;1.00;;
11384;SDS011;5747;56.748;13.882;2023-08-07T14:06:29;0.93;;;0.90;;
11384;SDS011;5747;56.748;13.882;2023-08-07T14:08:57;1.10;;;1.00;;
11384;SDS011;5747;56.748;13.882;2023-08-07T14:11:26;6.00;;;1.10;;
11384;SDS011;5747;56.748;13.882;2023-08-07T14:13:57;2.17;;;0.90;;
11384;SDS011;5747;56.748;13.882;2023-08-07T14:16:25;1.03;;;1.00;;
11384;SDS011;5747;56.748;13.882;2023-08-07T14:18:53;1.13;;;1.00;;
11384;SDS011;5747;56.748;13.882;2023-08-07T14:21:22;1.80;;;1.00;;
11384;SDS011;5747;56.748;13.882;2023-08-07T14:23:51;0.97;;;0.97;;
11384;SDS011;5747;56.748;13.882;2023-08-07T14:26:20;0.90;;;0.90;;
11384;SDS011;5747;56.748;13.882;2023-08-07T14:28:48;1.00;;;1.00;;
11384;SDS011;5747;56.748;13.882;2023-08-07T14:31:16;1.97;;;1.00;;
11384;SDS011;5747;56.748;13.882;2023-08-07T14:33:44;1.23;;;1.00;;
11384;SDS011;5747;56.748;13.882;2023-08-07T14:36:12;0.80;;;0.80;;
11384;SDS011;5747;56.748;13.882;2023-08-07T14:38:41;1.00;;;0.80;;
11384;SDS011;5747;56.748;13.882;2023-08-07T14:41:10;1.93;;;0.97;;
11384;SDS011;5747;56.748;13.882;2023-08-07T14:43:39;0.90;;;0.90;;
11384;SDS011;5747;56.748;13.882;2023-08-07T14:46:07;2.53;;;1.07;;
11384;SDS011;5747;56.748;13.882;2023-08-07T14:48:35;0.90;;;0.90;;
11384;SDS011;5747;56.748;13.882;2023-08-07T14:51:03;1.33;;;0.97;;
11384;SDS011;5747;56.748;13.882;2023-08-07T14:53:32;3.63;;;1.00;;
11384;SDS011;5747;56.748;13.882;2023-08-07T14:56:01;2.00;;;0.90;;